This is the latest recevied weather packets stored in our database for station/object DC2MP. If no packets are shown the sender has not sent any weather packets the latest 10 day(s).
| Time | Temp. | Humidity | Pressure | Rain* | Wind** | Luminosity | Snow |
|---|---|---|---|---|---|---|---|
| 1777902543 | 21.67° C | 39% | 1012.7 hPa | 0 mm | - | - | - |
| 1777898943 | 21.11° C | 39% | 1013.1 hPa | 0 mm | - | - | - |
| 1777891743 | 19.44° C | 46% | 1014 hPa | 0 mm | - | - | - |
| 1777884543 | 18.33° C | 51% | 1014.9 hPa | 0 mm | - | - | - |
| 1777880943 | 15.56° C | 57% | 1015.3 hPa | 0 mm | - | - | - |
| 1777877344 | 13.33° C | 62% | 1015.5 hPa | 0 mm | - | - | - |
| 1777873743 | 9.44° C | 81% | 1015.8 hPa | 0 mm | - | - | - |
| 1777870143 | 8.33° C | 83% | 1016 hPa | 0 mm | - | - | - |
| 1777866543 | 9.44° C | 80% | 1016.1 hPa | 0 mm | - | - | - |
| 1777862944 | 10° C | 80% | 1016.3 hPa | 0 mm | - | - | - |
| 1777859343 | 11.67° C | 73% | 1016.4 hPa | 0 mm | - | - | - |
| 1777855743 | 12.22° C | 71% | 1016.4 hPa | 0 mm | - | - | - |
| 1777844943 | 15° C | 55% | 1016.4 hPa | 0 mm | - | - | - |
| 1777841343 | 15.56° C | 53% | 1016 hPa | 0 mm | - | - | - |
| 1777837744 | 16.11° C | 52% | 1015.4 hPa | 0 mm | - | - | - |
| 1777834142 | 18.33° C | 46% | 1014.7 hPa | 0 mm | - | - | - |
| 1777826943 | 21.11° C | 37% | 1014.1 hPa | 0 mm | - | - | - |
| 1777823342 | 21.67° C | 35% | 1013.8 hPa | 0 mm | - | - | - |
| 1777819743 | 22.78° C | 34% | 1013.8 hPa | 0 mm | - | - | - |
| 1777816143 | 22.22° C | 32% | 1014.2 hPa | 0 mm | - | - | - |
| 1777812543 | 22.22° C | 31% | 1014.6 hPa | 0 mm | - | - | - |
| 1777808943 | 22.22° C | 27% | 1014.9 hPa | 0 mm | - | - | - |
| 1777805343 | 21.67° C | 31% | 1015.4 hPa | 0 mm | - | - | - |
| 1777801743 | 21.11° C | 35% | 1015.9 hPa | 0 mm | - | - | - |
| 1777798143 | 20° C | 42% | 1016.5 hPa | 0 mm | - | - | - |
* Rain latest hour (hover to see other rain measurements)
** Current wind speed in m/s (hover to see current wind gust speed)